sensor_id;sensor_type;location;lat;lon;timestamp;pressure;altitude;pressure_sealevel;temperature;humidity
31346;BME280;21711;49.708;18.568;2023-05-21T00:01:37;97756.00;;;15.51;100.00
31346;BME280;21711;49.708;18.568;2023-05-21T00:04:08;97752.47;;;15.56;100.00
31346;BME280;21711;49.708;18.568;2023-05-21T00:06:37;97747.34;;;15.60;100.00
31346;BME280;21711;49.708;18.568;2023-05-21T00:09:05;97742.41;;;15.53;100.00
31346;BME280;21711;49.708;18.568;2023-05-21T00:11:33;97747.84;;;15.62;100.00
31346;BME280;21711;49.708;18.568;2023-05-21T00:14:00;97748.66;;;15.76;100.00
31346;BME280;21711;49.708;18.568;2023-05-21T00:16:27;97750.94;;;15.83;100.00
31346;BME280;21711;49.708;18.568;2023-05-21T00:18:55;97747.56;;;15.77;100.00
31346;BME280;21711;49.708;18.568;2023-05-21T00:21:24;97752.00;;;15.68;100.00
31346;BME280;21711;49.708;18.568;2023-05-21T00:23:53;97744.09;;;15.63;100.00
31346;BME280;21711;49.708;18.568;2023-05-21T00:26:20;97739.25;;;15.65;100.00
31346;BME280;21711;49.708;18.568;2023-05-21T00:28:49;97743.41;;;15.57;100.00
31346;BME280;21711;49.708;18.568;2023-05-21T00:31:17;97736.75;;;15.41;100.00
31346;BME280;21711;49.708;18.568;2023-05-21T00:33:45;97743.84;;;15.31;100.00
31346;BME280;21711;49.708;18.568;2023-05-21T00:36:13;97725.47;;;15.30;100.00
31346;BME280;21711;49.708;18.568;2023-05-21T00:38:42;97727.94;;;15.26;100.00
31346;BME280;21711;49.708;18.568;2023-05-21T00:41:10;97721.19;;;15.15;100.00
31346;BME280;21711;49.708;18.568;2023-05-21T00:43:38;97723.44;;;15.07;100.00
31346;BME280;21711;49.708;18.568;2023-05-21T00:46:14;97728.06;;;15.02;100.00
31346;BME280;21711;49.708;18.568;2023-05-21T00:48:44;97725.66;;;15.00;100.00
31346;BME280;21711;49.708;18.568;2023-05-21T00:51:14;97736.97;;;14.92;100.00
31346;BME280;21711;49.708;18.568;2023-05-21T00:53:43;97720.88;;;15.02;100.00
31346;BME280;21711;49.708;18.568;2023-05-21T00:56:11;97729.22;;;14.95;100.00
31346;BME280;21711;49.708;18.568;2023-05-21T00:58:40;97724.47;;;14.92;100.00
31346;BME280;21711;49.708;18.568;2023-05-21T01:01:07;97723.13;;;14.76;100.00
31346;BME280;21711;49.708;18.568;2023-05-21T01:03:40;97708.84;;;14.66;100.00
31346;BME280;21711;49.708;18.568;2023-05-21T01:06:10;97710.63;;;14.71;100.00
31346;BME280;21711;49.708;18.568;2023-05-21T01:08:37;97701.44;;;14.63;100.00
31346;BME280;21711;49.708;18.568;2023-05-21T01:11:08;97699.94;;;14.57;100.00
31346;BME280;21711;49.708;18.568;2023-05-21T01:13:38;97701.44;;;14.63;100.00
31346;BME280;21711;49.708;18.568;2023-05-21T01:16:08;97706.47;;;14.65;100.00
31346;BME280;21711;49.708;18.568;2023-05-21T01:18:37;97698.63;;;14.73;100.00
31346;BME280;21711;49.708;18.568;2023-05-21T01:21:05;97701.06;;;14.70;100.00
31346;BME280;21711;49.708;18.568;2023-05-21T01:23:33;97700.19;;;14.75;100.00
31346;BME280;21711;49.708;18.568;2023-05-21T01:26:01;97706.31;;;14.75;100.00
31346;BME280;21711;49.708;18.568;2023-05-21T01:28:29;97699.34;;;14.60;100.00
31346;BME280;21711;49.708;18.568;2023-05-21T01:30:58;97694.03;;;14.41;100.00
31346;BME280;21711;49.708;18.568;2023-05-21T01:33:43;97694.16;;;14.50;100.00
31346;BME280;21711;49.708;18.568;2023-05-21T01:36:37;97690.84;;;14.39;100.00
31346;BME280;21711;49.708;18.568;2023-05-21T01:39:18;97696.75;;;14.36;100.00
31346;BME280;21711;49.708;18.568;2023-05-21T01:41:49;97687.69;;;14.37;100.00
31346;BME280;21711;49.708;18.568;2023-05-21T01:44:19;97687.44;;;14.14;100.00
31346;BME280;21711;49.708;18.568;2023-05-21T01:46:47;97690.91;;;14.14;100.00
31346;BME280;21711;49.708;18.568;2023-05-21T01:49:17;97685.06;;;14.12;100.00
31346;BME280;21711;49.708;18.568;2023-05-21T01:51:45;97681.31;;;14.13;100.00
31346;BME280;21711;49.708;18.568;2023-05-21T01:54:13;97677.72;;;14.04;100.00
31346;BME280;21711;49.708;18.568;2023-05-21T01:56:40;97677.38;;;14.11;100.00
31346;BME280;21711;49.708;18.568;2023-05-21T01:59:09;97678.31;;;14.01;100.00
31346;BME280;21711;49.708;18.568;2023-05-21T02:01:36;97673.81;;;13.96;100.00
31346;BME280;21711;49.708;18.568;2023-05-21T02:04:04;97681.38;;;14.08;100.00
31346;BME280;21711;49.708;18.568;2023-05-21T02:06:31;97688.75;;;14.16;100.00
31346;BME280;21711;49.708;18.568;2023-05-21T02:08:59;97677.63;;;14.33;100.00
31346;BME280;21711;49.708;18.568;2023-05-21T02:11:26;97680.44;;;14.42;100.00
31346;BME280;21711;49.708;18.568;2023-05-21T02:13:53;97677.53;;;14.39;100.00
31346;BME280;21711;49.708;18.568;2023-05-21T02:16:21;97678.13;;;14.55;100.00
31346;BME280;21711;49.708;18.568;2023-05-21T02:18:48;97670.78;;;14.66;100.00
31346;BME280;21711;49.708;18.568;2023-05-21T02:21:20;97673.72;;;14.64;100.00
31346;BME280;21711;49.708;18.568;2023-05-21T02:23:47;97672.97;;;14.64;100.00
31346;BME280;21711;49.708;18.568;2023-05-21T02:26:15;97672.53;;;14.76;100.00
31346;BME280;21711;49.708;18.568;2023-05-21T02:28:43;97676.59;;;14.68;100.00
31346;BME280;21711;49.708;18.568;2023-05-21T02:31:10;97680.22;;;14.77;100.00
31346;BME280;21711;49.708;18.568;2023-05-21T02:33:41;97662.88;;;14.60;100.00
31346;BME280;21711;49.708;18.568;2023-05-21T02:36:09;97664.84;;;14.36;100.00
31346;BME280;21711;49.708;18.568;2023-05-21T02:38:39;97669.41;;;14.30;100.00
31346;BME280;21711;49.708;18.568;2023-05-21T02:41:12;97661.38;;;14.35;100.00
31346;BME280;21711;49.708;18.568;2023-05-21T02:43:40;97661.88;;;14.37;100.00
31346;BME280;21711;49.708;18.568;2023-05-21T02:46:07;97661.44;;;14.49;100.00
31346;BME280;21711;49.708;18.568;2023-05-21T02:48:35;97656.78;;;14.41;100.00
31346;BME280;21711;49.708;18.568;2023-05-21T02:51:04;97656.25;;;14.39;100.00
31346;BME280;21711;49.708;18.568;2023-05-21T02:53:31;97658.50;;;14.31;100.00
31346;BME280;21711;49.708;18.568;2023-05-21T02:55:58;97665.69;;;14.31;100.00
31346;BME280;21711;49.708;18.568;2023-05-21T02:58:26;97662.06;;;14.22;100.00
31346;BME280;21711;49.708;18.568;2023-05-21T03:00:53;97657.69;;;14.31;100.00
31346;BME280;21711;49.708;18.568;2023-05-21T03:03:20;97652.00;;;14.18;100.00
31346;BME280;21711;49.708;18.568;2023-05-21T03:05:48;97658.69;;;14.16;100.00
31346;BME280;21711;49.708;18.568;2023-05-21T03:08:15;97665.41;;;14.32;100.00
31346;BME280;21711;49.708;18.568;2023-05-21T03:10:43;97661.88;;;14.37;100.00
31346;BME280;21711;49.708;18.568;2023-05-21T03:13:10;97658.16;;;14.38;100.00
31346;BME280;21711;49.708;18.568;2023-05-21T03:15:38;97656.97;;;14.44;100.00
31346;BME280;21711;49.708;18.568;2023-05-21T03:18:05;97655.91;;;14.45;100.00
31346;BME280;21711;49.708;18.568;2023-05-21T03:20:33;97657.56;;;14.60;100.00
31346;BME280;21711;49.708;18.568;2023-05-21T03:23:00;97664.56;;;14.70;100.00
31346;BME280;21711;49.708;18.568;2023-05-21T03:25:30;97664.25;;;14.77;100.00
31346;BME280;21711;49.708;18.568;2023-05-21T03:27:58;97671.47;;;14.77;100.00
31346;BME280;21711;49.708;18.568;2023-05-21T03:30:46;97665.44;;;14.85;100.00
31346;BME280;21711;49.708;18.568;2023-05-21T03:33:35;97654.81;;;14.85;100.00
31346;BME280;21711;49.708;18.568;2023-05-21T03:36:16;97656.03;;;14.93;100.00
31346;BME280;21711;49.708;18.568;2023-05-21T03:38:44;97658.19;;;14.91;100.00
31346;BME280;21711;49.708;18.568;2023-05-21T03:41:13;97649.34;;;15.09;100.00
31346;BME280;21711;49.708;18.568;2023-05-21T03:43:43;97651.38;;;15.32;100.00
31346;BME280;21711;49.708;18.568;2023-05-21T03:46:10;97654.53;;;15.34;100.00
31346;BME280;21711;49.708;18.568;2023-05-21T03:48:57;97652.50;;;15.45;100.00
31346;BME280;21711;49.708;18.568;2023-05-21T03:51:27;97656.72;;;15.60;100.00
31346;BME280;21711;49.708;18.568;2023-05-21T03:53:58;97651.97;;;15.85;100.00
31346;BME280;21711;49.708;18.568;2023-05-21T03:56:25;97657.31;;;16.13;100.00
31346;BME280;21711;49.708;18.568;2023-05-21T03:58:52;97653.16;;;16.21;100.00
31346;BME280;21711;49.708;18.568;2023-05-21T04:01:20;97660.59;;;16.47;100.00
31346;BME280;21711;49.708;18.568;2023-05-21T04:03:50;97670.69;;;16.95;100.00
31346;BME280;21711;49.708;18.568;2023-05-21T04:06:21;97665.56;;;17.31;100.00
31346;BME280;21711;49.708;18.568;2023-05-21T04:08:49;97676.94;;;17.77;100.00
31346;BME280;21711;49.708;18.568;2023-05-21T04:11:16;97672.63;;;18.08;100.00
31346;BME280;21711;49.708;18.568;2023-05-21T04:13:43;97672.09;;;18.06;100.00
31346;BME280;21711;49.708;18.568;2023-05-21T04:16:12;97672.63;;;18.08;100.00
31346;BME280;21711;49.708;18.568;2023-05-21T04:18:41;97683.06;;;18.45;100.00
31346;BME280;21711;49.708;18.568;2023-05-21T04:21:12;97673.78;;;18.60;100.00
31346;BME280;21711;49.708;18.568;2023-05-21T04:23:39;97678.78;;;18.97;100.00
31346;BME280;21711;49.708;18.568;2023-05-21T04:26:14;97679.28;;;19.08;100.00
31346;BME280;21711;49.708;18.568;2023-05-21T04:28:42;97677.34;;;19.26;100.00
31346;BME280;21711;49.708;18.568;2023-05-21T04:31:09;97684.25;;;19.27;100.00
31346;BME280;21711;49.708;18.568;2023-05-21T04:33:39;97688.16;;;19.47;100.00
31346;BME280;21711;49.708;18.568;2023-05-21T04:36:08;97681.44;;;19.71;100.00
31346;BME280;21711;49.708;18.568;2023-05-21T04:38:38;97683.00;;;19.72;100.00
31346;BME280;21711;49.708;18.568;2023-05-21T04:41:07;97679.63;;;19.84;100.00
31346;BME280;21711;49.708;18.568;2023-05-21T04:43:37;97692.38;;;20.26;100.00
31346;BME280;21711;49.708;18.568;2023-05-21T04:46:04;97684.72;;;20.16;100.00
31346;BME280;21711;49.708;18.568;2023-05-21T04:48:33;97682.38;;;20.57;100.00
31346;BME280;21711;49.708;18.568;2023-05-21T04:51:00;97681.47;;;21.08;100.00
31346;BME280;21711;49.708;18.568;2023-05-21T04:53:28;97690.28;;;21.67;100.00
31346;BME280;21711;49.708;18.568;2023-05-21T04:55:55;97692.75;;;21.60;100.00
31346;BME280;21711;49.708;18.568;2023-05-21T04:58:25;97688.31;;;21.76;100.00
31346;BME280;21711;49.708;18.568;2023-05-21T05:00:53;97682.50;;;21.74;100.00
31346;BME280;21711;49.708;18.568;2023-05-21T05:03:22;97682.47;;;21.99;100.00
31346;BME280;21711;49.708;18.568;2023-05-21T05:05:49;97691.03;;;22.55;100.00
31346;BME280;21711;49.708;18.568;2023-05-21T05:08:19;97678.88;;;22.90;100.00
31346;BME280;21711;49.708;18.568;2023-05-21T05:10:46;97682.38;;;23.06;100.00
31346;BME280;21711;49.708;18.568;2023-05-21T05:13:14;97682.84;;;23.08;100.00
31346;BME280;21711;49.708;18.568;2023-05-21T05:15:42;97675.38;;;23.18;100.00
31346;BME280;21711;49.708;18.568;2023-05-21T05:18:09;97681.81;;;23.29;100.00
31346;BME280;21711;49.708;18.568;2023-05-21T05:20:39;97686.09;;;24.11;100.00
31346;BME280;21711;49.708;18.568;2023-05-21T05:23:06;97691.41;;;24.43;99.86
31346;BME280;21711;49.708;18.568;2023-05-21T05:25:34;97685.72;;;24.48;100.00
31346;BME280;21711;49.708;18.568;2023-05-21T05:28:02;97688.19;;;24.57;86.92
31346;BME280;21711;49.708;18.568;2023-05-21T05:30:29;97679.09;;;24.85;85.84
31346;BME280;21711;49.708;18.568;2023-05-21T05:33:09;97685.97;;;25.26;80.76
31346;BME280;21711;49.708;18.568;2023-05-21T05:35:37;97691.31;;;25.92;68.28
31346;BME280;21711;49.708;18.568;2023-05-21T05:38:05;97681.75;;;25.98;65.97
31346;BME280;21711;49.708;18.568;2023-05-21T05:40:36;97691.84;;;26.29;59.86
31346;BME280;21711;49.708;18.568;2023-05-21T05:43:03;97694.47;;;26.86;59.96
31346;BME280;21711;49.708;18.568;2023-05-21T05:45:30;97695.75;;;27.38;56.95
31346;BME280;21711;49.708;18.568;2023-05-21T05:47:58;97693.84;;;27.42;56.47
31346;BME280;21711;49.708;18.568;2023-05-21T05:50:26;97700.41;;;26.31;57.23
31346;BME280;21711;49.708;18.568;2023-05-21T05:52:54;97695.28;;;26.56;59.11
31346;BME280;21711;49.708;18.568;2023-05-21T05:55:21;97697.16;;;27.62;56.26
31346;BME280;21711;49.708;18.568;2023-05-21T05:57:50;97691.25;;;28.09;54.59
31346;BME280;21711;49.708;18.568;2023-05-21T06:00:18;97688.44;;;28.76;54.41
31346;BME280;21711;49.708;18.568;2023-05-21T06:02:48;97691.06;;;28.47;52.19
31346;BME280;21711;49.708;18.568;2023-05-21T06:05:15;97686.78;;;27.75;53.22
31346;BME280;21711;49.708;18.568;2023-05-21T06:07:43;97684.81;;;28.35;49.79
31346;BME280;21711;49.708;18.568;2023-05-21T06:10:10;97683.50;;;29.29;49.34
31346;BME280;21711;49.708;18.568;2023-05-21T06:12:37;97687.00;;;29.99;48.58
31346;BME280;21711;49.708;18.568;2023-05-21T06:15:06;97686.84;;;30.61;45.67
31346;BME280;21711;49.708;18.568;2023-05-21T06:17:33;97693.41;;;30.70;46.13
31346;BME280;21711;49.708;18.568;2023-05-21T06:20:01;97679.03;;;30.55;45.21
31346;BME280;21711;49.708;18.568;2023-05-21T06:22:28;97679.09;;;30.48;46.01
31346;BME280;21711;49.708;18.568;2023-05-21T06:24:56;97675.84;;;30.79;43.59
31346;BME280;21711;49.708;18.568;2023-05-21T06:27:24;97666.94;;;31.31;44.20
31346;BME280;21711;49.708;18.568;2023-05-21T06:29:51;97678.34;;;31.68;41.85
31346;BME280;21711;49.708;18.568;2023-05-21T06:32:19;97675.16;;;31.73;42.62
31346;BME280;21711;49.708;18.568;2023-05-21T06:34:49;97682.72;;;32.00;40.34
31346;BME280;21711;49.708;18.568;2023-05-21T06:37:19;97678.88;;;31.52;41.81
31346;BME280;21711;49.708;18.568;2023-05-21T06:39:48;97676.66;;;31.78;41.91
31346;BME280;21711;49.708;18.568;2023-05-21T06:42:16;97677.97;;;31.13;42.55
31346;BME280;21711;49.708;18.568;2023-05-21T06:44:53;97681.13;;;32.38;39.18
31346;BME280;21711;49.708;18.568;2023-05-21T06:47:35;97690.81;;;31.69;40.36
31346;BME280;21711;49.708;18.568;2023-05-21T06:50:03;97677.34;;;32.28;40.51
31346;BME280;21711;49.708;18.568;2023-05-21T06:52:31;97685.47;;;33.49;39.59
31346;BME280;21711;49.708;18.568;2023-05-21T06:55:00;97682.53;;;34.08;38.29
31346;BME280;21711;49.708;18.568;2023-05-21T06:57:37;97682.22;;;34.02;37.03
31346;BME280;21711;49.708;18.568;2023-05-21T07:00:06;97681.84;;;34.00;38.08
31346;BME280;21711;49.708;18.568;2023-05-21T07:02:36;97673.16;;;34.26;37.32
31346;BME280;21711;49.708;18.568;2023-05-21T07:05:04;97671.81;;;33.93;37.91
31346;BME280;21711;49.708;18.568;2023-05-21T07:07:31;97676.75;;;34.43;37.28
31346;BME280;21711;49.708;18.568;2023-05-21T07:10:01;97679.47;;;35.33;35.23
31346;BME280;21711;49.708;18.568;2023-05-21T07:12:28;97671.47;;;34.89;34.78
31346;BME280;21711;49.708;18.568;2023-05-21T07:14:56;97662.53;;;35.01;34.71
31346;BME280;21711;49.708;18.568;2023-05-21T07:17:25;97669.97;;;35.21;34.02
31346;BME280;21711;49.708;18.568;2023-05-21T07:19:53;97663.28;;;35.22;35.01
31346;BME280;21711;49.708;18.568;2023-05-21T07:22:20;97654.72;;;34.83;36.56
31346;BME280;21711;49.708;18.568;2023-05-21T07:24:48;97661.44;;;35.65;33.27
31346;BME280;21711;49.708;18.568;2023-05-21T07:27:16;97660.22;;;35.66;34.05
31346;BME280;21711;49.708;18.568;2023-05-21T07:29:53;97656.03;;;36.21;33.10
31346;BME280;21711;49.708;18.568;2023-05-21T07:32:22;97657.31;;;35.07;33.35
31346;BME280;21711;49.708;18.568;2023-05-21T07:34:49;97654.72;;;35.00;34.75
31346;BME280;21711;49.708;18.568;2023-05-21T07:37:22;97654.31;;;35.98;33.23
31346;BME280;21711;49.708;18.568;2023-05-21T07:39:51;97657.84;;;36.41;31.47
31346;BME280;21711;49.708;18.568;2023-05-21T07:42:19;97663.69;;;35.54;33.67
31346;BME280;21711;49.708;18.568;2023-05-21T07:44:46;97671.72;;;36.08;33.24
31346;BME280;21711;49.708;18.568;2023-05-21T07:47:13;97661.31;;;36.15;32.45
31346;BME280;21711;49.708;18.568;2023-05-21T07:49:41;97652.34;;;35.69;32.48
31346;BME280;21711;49.708;18.568;2023-05-21T07:52:09;97657.63;;;35.76;33.11
31346;BME280;21711;49.708;18.568;2023-05-21T07:54:37;97655.63;;;35.93;32.21
31346;BME280;21711;49.708;18.568;2023-05-21T07:57:04;97649.84;;;35.74;33.68
31346;BME280;21711;49.708;18.568;2023-05-21T08:00:05;97655.56;;;35.17;32.86
31346;BME280;21711;49.708;18.568;2023-05-21T08:02:41;97657.66;;;36.87;33.21
31346;BME280;21711;49.708;18.568;2023-05-21T08:05:11;97661.41;;;36.93;30.80
31346;BME280;21711;49.708;18.568;2023-05-21T08:07:39;97650.47;;;36.51;31.89
31346;BME280;21711;49.708;18.568;2023-05-21T08:10:07;97652.66;;;36.43;30.88
31346;BME280;21711;49.708;18.568;2023-05-21T08:12:35;97648.06;;;36.10;32.27
31346;BME280;21711;49.708;18.568;2023-05-21T08:15:04;97648.09;;;35.80;31.20
31346;BME280;21711;49.708;18.568;2023-05-21T08:17:35;97646.44;;;36.68;31.12
31346;BME280;21711;49.708;18.568;2023-05-21T08:20:03;97635.31;;;34.37;34.40
31346;BME280;21711;49.708;18.568;2023-05-21T08:22:33;97643.41;;;36.50;32.27
31346;BME280;21711;49.708;18.568;2023-05-21T08:25:00;97638.47;;;37.58;29.53
31346;BME280;21711;49.708;18.568;2023-05-21T08:27:28;97635.59;;;35.92;32.51
31346;BME280;21711;49.708;18.568;2023-05-21T08:29:56;97637.94;;;36.76;32.16
31346;BME280;21711;49.708;18.568;2023-05-21T08:32:24;97639.22;;;36.32;32.72
31346;BME280;21711;49.708;18.568;2023-05-21T08:34:52;97637.69;;;36.57;32.85
31346;BME280;21711;49.708;18.568;2023-05-21T08:37:35;97639.31;;;37.68;32.90
31346;BME280;21711;49.708;18.568;2023-05-21T08:40:14;97636.75;;;36.77;33.57
31346;BME280;21711;49.708;18.568;2023-05-21T08:42:48;97638.00;;;37.72;31.94
31346;BME280;21711;49.708;18.568;2023-05-21T08:45:22;97631.44;;;38.01;31.28
31346;BME280;21711;49.708;18.568;2023-05-21T08:47:58;97632.63;;;38.86;31.13
31346;BME280;21711;49.708;18.568;2023-05-21T08:50:30;97637.34;;;38.13;31.02
31346;BME280;21711;49.708;18.568;2023-05-21T08:53:03;97631.28;;;38.27;30.98
31346;BME280;21711;49.708;18.568;2023-05-21T08:55:51;97637.97;;;39.22;29.02
31346;BME280;21711;49.708;18.568;2023-05-21T08:58:21;97630.75;;;38.74;30.19
31346;BME280;21711;49.708;18.568;2023-05-21T09:00:49;97632.94;;;37.22;30.77
31346;BME280;21711;49.708;18.568;2023-05-21T09:03:17;97626.03;;;37.75;30.44
31346;BME280;21711;49.708;18.568;2023-05-21T09:05:45;97629.56;;;37.98;31.80
31346;BME280;21711;49.708;18.568;2023-05-21T09:08:18;97628.25;;;38.57;30.45
31346;BME280;21711;49.708;18.568;2023-05-21T09:11:00;97627.22;;;38.10;30.49
31346;BME280;21711;49.708;18.568;2023-05-21T09:13:32;97625.00;;;37.24;31.68
31346;BME280;21711;49.708;18.568;2023-05-21T09:16:09;97622.19;;;37.73;30.33
31346;BME280;21711;49.708;18.568;2023-05-21T09:18:37;97624.03;;;37.54;30.77
31346;BME280;21711;49.708;18.568;2023-05-21T09:21:28;97617.59;;;37.70;29.84
31346;BME280;21711;49.708;18.568;2023-05-21T09:23:59;97623.44;;;38.17;30.08
31346;BME280;21711;49.708;18.568;2023-05-21T09:26:28;97612.41;;;37.72;31.65
31346;BME280;21711;49.708;18.568;2023-05-21T09:29:00;97615.44;;;38.50;29.85
31346;BME280;21711;49.708;18.568;2023-05-21T09:31:29;97617.91;;;37.94;30.48
31346;BME280;21711;49.708;18.568;2023-05-21T09:33:56;97610.41;;;37.72;30.66
31346;BME280;21711;49.708;18.568;2023-05-21T09:36:26;97616.09;;;37.20;30.78
31346;BME280;21711;49.708;18.568;2023-05-21T09:38:55;97611.09;;;38.08;30.49
31346;BME280;21711;49.708;18.568;2023-05-21T09:41:33;97614.22;;;38.51;28.81
31346;BME280;21711;49.708;18.568;2023-05-21T09:44:03;97606.56;;;37.92;29.85
31346;BME280;21711;49.708;18.568;2023-05-21T09:46:39;97613.69;;;37.45;31.59
31346;BME280;21711;49.708;18.568;2023-05-21T09:49:24;97607.00;;;36.84;30.84
31346;BME280;21711;49.708;18.568;2023-05-21T09:51:57;97601.38;;;36.62;31.35
31346;BME280;21711;49.708;18.568;2023-05-21T09:54:32;97603.22;;;36.26;33.84
31346;BME280;21711;49.708;18.568;2023-05-21T09:57:01;97589.25;;;36.85;32.33
31346;BME280;21711;49.708;18.568;2023-05-21T09:59:38;97601.75;;;37.26;32.01
31346;BME280;21711;49.708;18.568;2023-05-21T10:02:21;97602.81;;;35.98;32.79
31346;BME280;21711;49.708;18.568;2023-05-21T10:04:51;97591.69;;;35.13;32.39
31346;BME280;21711;49.708;18.568;2023-05-21T10:07:21;97582.66;;;35.29;33.92
31346;BME280;21711;49.708;18.568;2023-05-21T10:09:56;97580.69;;;34.26;35.76
31346;BME280;21711;49.708;18.568;2023-05-21T10:12:24;97578.53;;;34.71;35.25
31346;BME280;21711;49.708;18.568;2023-05-21T10:14:59;97575.25;;;35.09;35.95
31346;BME280;21711;49.708;18.568;2023-05-21T10:17:29;97579.03;;;35.62;36.17
31346;BME280;21711;49.708;18.568;2023-05-21T10:19:59;97572.97;;;36.26;33.47
31346;BME280;21711;49.708;18.568;2023-05-21T10:22:27;97566.75;;;36.61;34.14
31346;BME280;21711;49.708;18.568;2023-05-21T10:24:56;97572.34;;;36.05;34.15
31346;BME280;21711;49.708;18.568;2023-05-21T10:27:25;97566.94;;;36.02;33.56
31346;BME280;21711;49.708;18.568;2023-05-21T10:29:58;97561.53;;;35.26;36.22
31346;BME280;21711;49.708;18.568;2023-05-21T10:32:27;97555.75;;;34.54;37.15
31346;BME280;21711;49.708;18.568;2023-05-21T10:34:54;97556.88;;;34.40;36.35
31346;BME280;21711;49.708;18.568;2023-05-21T10:37:26;97546.81;;;33.76;36.32
31346;BME280;21711;49.708;18.568;2023-05-21T10:39:54;97552.53;;;34.22;37.89
31346;BME280;21711;49.708;18.568;2023-05-21T11:00:34;97543.84;;;32.98;40.51
31346;BME280;21711;49.708;18.568;2023-05-21T11:03:03;97540.19;;;33.53;38.94
31346;BME280;21711;49.708;18.568;2023-05-21T11:06:01;97540.78;;;33.20;39.91
31346;BME280;21711;49.708;18.568;2023-05-21T11:08:30;97537.19;;;32.20;43.62
31346;BME280;21711;49.708;18.568;2023-05-21T11:11:02;97533.53;;;32.31;41.48
31346;BME280;21711;49.708;18.568;2023-05-21T11:13:47;97530.16;;;32.19;39.11
31346;BME280;21711;49.708;18.568;2023-05-21T11:16:16;97529.13;;;32.09;41.77
31346;BME280;21711;49.708;18.568;2023-05-21T11:21:17;97524.09;;;28.99;45.94
31346;BME280;21711;49.708;18.568;2023-05-21T11:23:50;97506.59;;;29.00;47.98
31346;BME280;21711;49.708;18.568;2023-05-21T11:26:26;97514.34;;;29.05;50.81
31346;BME280;21711;49.708;18.568;2023-05-21T11:31:32;97517.03;;;29.56;47.99
31346;BME280;21711;49.708;18.568;2023-05-21T11:34:22;97515.94;;;30.28;47.18
31346;BME280;21711;49.708;18.568;2023-05-21T11:39:53;97513.94;;;29.29;47.33
31346;BME280;21711;49.708;18.568;2023-05-21T11:42:33;97516.28;;;29.34;48.30
31346;BME280;21711;49.708;18.568;2023-05-21T11:45:02;97515.84;;;29.43;48.01
31346;BME280;21711;49.708;18.568;2023-05-21T11:47:31;97508.06;;;29.59;47.69
31346;BME280;21711;49.708;18.568;2023-05-21T11:50:01;97509.72;;;29.02;48.50
31346;BME280;21711;49.708;18.568;2023-05-21T11:52:30;97511.66;;;28.98;50.01
31346;BME280;21711;49.708;18.568;2023-05-21T11:54:58;97495.69;;;28.42;49.97
31346;BME280;21711;49.708;18.568;2023-05-21T11:57:27;97502.69;;;28.72;50.16
31346;BME280;21711;49.708;18.568;2023-05-21T12:00:00;97499.97;;;28.75;50.84
31346;BME280;21711;49.708;18.568;2023-05-21T12:02:49;97499.84;;;28.03;54.05
31346;BME280;21711;49.708;18.568;2023-05-21T12:05:17;97501.09;;;27.38;53.68
31346;BME280;21711;49.708;18.568;2023-05-21T12:07:48;97492.94;;;26.37;55.44
31346;BME280;21711;49.708;18.568;2023-05-21T12:10:20;97500.53;;;25.90;58.88
31346;BME280;21711;49.708;18.568;2023-05-21T12:12:49;97503.00;;;25.41;57.15
31346;BME280;21711;49.708;18.568;2023-05-21T12:15:24;97502.63;;;24.88;57.61
31346;BME280;21711;49.708;18.568;2023-05-21T12:17:53;97500.69;;;24.89;62.21
31346;BME280;21711;49.708;18.568;2023-05-21T12:20:21;97513.50;;;24.92;60.56
31346;BME280;21711;49.708;18.568;2023-05-21T12:22:49;97506.97;;;24.73;64.96
31346;BME280;21711;49.708;18.568;2023-05-21T12:25:19;97504.22;;;24.93;60.64
31346;BME280;21711;49.708;18.568;2023-05-21T12:27:48;97500.78;;;24.49;63.06
31346;BME280;21711;49.708;18.568;2023-05-21T12:30:19;97506.78;;;24.62;63.26
31346;BME280;21711;49.708;18.568;2023-05-21T12:32:48;97516.69;;;24.98;64.69
31346;BME280;21711;49.708;18.568;2023-05-21T12:35:22;97502.69;;;25.19;64.66
31346;BME280;21711;49.708;18.568;2023-05-21T12:37:50;97497.75;;;25.25;60.85
31346;BME280;21711;49.708;18.568;2023-05-21T12:40:19;97500.41;;;25.21;59.12
31346;BME280;21711;49.708;18.568;2023-05-21T12:42:46;97486.38;;;25.42;59.43
31346;BME280;21711;49.708;18.568;2023-05-21T12:45:14;97485.06;;;25.56;60.74
31346;BME280;21711;49.708;18.568;2023-05-21T12:47:47;97477.25;;;25.54;58.94
31346;BME280;21711;49.708;18.568;2023-05-21T12:50:19;97463.75;;;25.89;59.08
31346;BME280;21711;49.708;18.568;2023-05-21T12:52:47;97466.75;;;26.14;56.82
31346;BME280;21711;49.708;18.568;2023-05-21T12:55:15;97468.09;;;26.76;55.74
31346;BME280;21711;49.708;18.568;2023-05-21T12:57:43;97471.75;;;26.95;52.77
31346;BME280;21711;49.708;18.568;2023-05-21T13:00:11;97472.53;;;26.12;49.83
31346;BME280;21711;49.708;18.568;2023-05-21T13:02:42;97470.63;;;27.00;54.33
31346;BME280;21711;49.708;18.568;2023-05-21T13:05:16;97477.38;;;27.28;50.50
31346;BME280;21711;49.708;18.568;2023-05-21T13:07:45;97478.66;;;26.89;49.72
31346;BME280;21711;49.708;18.568;2023-05-21T13:10:17;97487.84;;;26.73;50.90
31346;BME280;21711;49.708;18.568;2023-05-21T13:12:45;97476.22;;;26.73;48.61
31346;BME280;21711;49.708;18.568;2023-05-21T13:15:13;97472.66;;;27.17;48.38
31346;BME280;21711;49.708;18.568;2023-05-21T13:17:41;97475.06;;;27.34;49.60
31346;BME280;21711;49.708;18.568;2023-05-21T13:20:17;97468.09;;;27.29;49.02
31346;BME280;21711;49.708;18.568;2023-05-21T13:22:51;97464.88;;;27.16;47.37
31346;BME280;21711;49.708;18.568;2023-05-21T13:25:22;97465.81;;;27.38;49.17
31346;BME280;21711;49.708;18.568;2023-05-21T13:27:51;97465.25;;;27.11;49.40